EVRA/RIX METAR and TAF weather

Enter ICAO airport designator
Station Type Date Time Source
EVRA METAR 2021/09/23 18:20 UTC NOAA

EVRA 231820Z 16015KT 9999 -RA OVC005 11/10 Q0991 TEMPO 3000


Station Type Date Time Source
EVRA Decoded METAR 2021/09/23 18:20 UTC NOAA

Riga International Airport, Latvia (EVRA) 56-55N 023-58E
Sep 23, 2021 - 02:20 PM EDT / 2021.09.23 1820 UTC
Wind: from the SSE (160 degrees) at 17 MPH (15 KT):0
Visibility: greater than 7 mile(s):0
Sky conditions: overcast
Weather: light rain
Temperature: 51 F (11 C)
Dew Point: 50 F (10 C)
Relative Humidity: 93%
Pressure (altimeter): 29.26 in. Hg (0991 hPa)
ob: EVRA 231820Z 16015KT 9999 -RA OVC005 11/10 Q0991 TEMPO 3000
cycle: 18

Station Type Date Time Source
EVRA TAF 2021/09/23 18:29 UTC NOAA

TAF EVRA 231701Z 2318/2418 16012KT 9000 BKN007 OVC010
TEMPO 2318/2323 16015G28KT 3000 -RA BR BKN003 PROB40
TEMPO 2318/2323 16015G30KT
BECMG 2323/2324 29007KT BKN015
TEMPO 2400/2406 2000 BR BKN004
TEMPO 2406/2418 BKN010 SCT015CB

Example: see airport list